sensor_id;sensor_type;location;lat;lon;timestamp;P1;durP1;ratioP1;P2;durP2;ratioP2
434;SDS011;204;48.942;9.256;2022-07-12T00:01:49;2.83;;;2.63;;
434;SDS011;204;48.942;9.256;2022-07-12T00:04:14;2.60;;;2.33;;
434;SDS011;204;48.942;9.256;2022-07-12T00:06:40;2.20;;;2.00;;
434;SDS011;204;48.942;9.256;2022-07-12T00:09:05;2.43;;;2.23;;
434;SDS011;204;48.942;9.256;2022-07-12T00:11:32;2.80;;;2.17;;
434;SDS011;204;48.942;9.256;2022-07-12T00:14:00;3.43;;;2.10;;
434;SDS011;204;48.942;9.256;2022-07-12T00:16:25;2.27;;;2.07;;
434;SDS011;204;48.942;9.256;2022-07-12T00:18:51;2.43;;;2.00;;
434;SDS011;204;48.942;9.256;2022-07-12T00:21:18;2.50;;;2.30;;
434;SDS011;204;48.942;9.256;2022-07-12T00:23:43;3.00;;;2.80;;
434;SDS011;204;48.942;9.256;2022-07-12T00:26:09;3.10;;;3.00;;
434;SDS011;204;48.942;9.256;2022-07-12T00:28:34;2.80;;;2.40;;
434;SDS011;204;48.942;9.256;2022-07-12T00:31:00;2.80;;;2.60;;
434;SDS011;204;48.942;9.256;2022-07-12T00:33:26;3.77;;;3.47;;
434;SDS011;204;48.942;9.256;2022-07-12T00:35:52;4.90;;;2.77;;
434;SDS011;204;48.942;9.256;2022-07-12T00:38:18;3.80;;;2.97;;
434;SDS011;204;48.942;9.256;2022-07-12T00:40:43;2.77;;;2.60;;
434;SDS011;204;48.942;9.256;2022-07-12T00:43:09;3.23;;;2.97;;
434;SDS011;204;48.942;9.256;2022-07-12T00:45:34;3.10;;;2.90;;
434;SDS011;204;48.942;9.256;2022-07-12T00:48:00;3.00;;;2.80;;
434;SDS011;204;48.942;9.256;2022-07-12T00:50:26;2.93;;;2.73;;
434;SDS011;204;48.942;9.256;2022-07-12T00:52:52;2.73;;;2.53;;
434;SDS011;204;48.942;9.256;2022-07-12T00:55:19;2.47;;;2.33;;
434;SDS011;204;48.942;9.256;2022-07-12T00:57:46;5.37;;;2.80;;
434;SDS011;204;48.942;9.256;2022-07-12T01:00:13;2.93;;;2.73;;
434;SDS011;204;48.942;9.256;2022-07-12T01:02:46;3.43;;;2.50;;
434;SDS011;204;48.942;9.256;2022-07-12T01:05:12;3.50;;;3.30;;
434;SDS011;204;48.942;9.256;2022-07-12T01:07:38;3.40;;;3.20;;
434;SDS011;204;48.942;9.256;2022-07-12T01:10:06;3.07;;;2.87;;
434;SDS011;204;48.942;9.256;2022-07-12T01:12:32;3.40;;;3.27;;
434;SDS011;204;48.942;9.256;2022-07-12T01:14:59;3.13;;;2.90;;
434;SDS011;204;48.942;9.256;2022-07-12T01:17:25;3.27;;;2.60;;
434;SDS011;204;48.942;9.256;2022-07-12T01:19:52;3.60;;;2.90;;
434;SDS011;204;48.942;9.256;2022-07-12T01:22:20;4.10;;;2.50;;
434;SDS011;204;48.942;9.256;2022-07-12T01:25:01;4.27;;;3.40;;
434;SDS011;204;48.942;9.256;2022-07-12T01:27:28;3.00;;;2.80;;
434;SDS011;204;48.942;9.256;2022-07-12T01:29:55;3.07;;;2.87;;
434;SDS011;204;48.942;9.256;2022-07-12T01:32:20;5.00;;;3.73;;
434;SDS011;204;48.942;9.256;2022-07-12T01:34:55;3.13;;;2.93;;
434;SDS011;204;48.942;9.256;2022-07-12T01:37:22;3.20;;;3.00;;
434;SDS011;204;48.942;9.256;2022-07-12T01:39:50;3.13;;;2.93;;
434;SDS011;204;48.942;9.256;2022-07-12T01:42:17;3.20;;;3.00;;
434;SDS011;204;48.942;9.256;2022-07-12T01:44:43;3.13;;;2.93;;
434;SDS011;204;48.942;9.256;2022-07-12T01:47:09;4.20;;;3.93;;
434;SDS011;204;48.942;9.256;2022-07-12T01:49:35;2.80;;;2.60;;
434;SDS011;204;48.942;9.256;2022-07-12T01:52:00;3.37;;;3.17;;
434;SDS011;204;48.942;9.256;2022-07-12T01:54:26;4.07;;;3.10;;
434;SDS011;204;48.942;9.256;2022-07-12T01:56:52;3.23;;;3.03;;
434;SDS011;204;48.942;9.256;2022-07-12T01:59:21;3.63;;;2.70;;
434;SDS011;204;48.942;9.256;2022-07-12T02:01:47;7.03;;;2.73;;
434;SDS011;204;48.942;9.256;2022-07-12T02:04:16;3.00;;;2.80;;
434;SDS011;204;48.942;9.256;2022-07-12T02:06:45;4.33;;;2.90;;
434;SDS011;204;48.942;9.256;2022-07-12T02:09:11;3.33;;;2.92;;
434;SDS011;204;48.942;9.256;2022-07-12T02:11:38;4.38;;;3.10;;
434;SDS011;204;48.942;9.256;2022-07-12T02:14:03;3.13;;;2.97;;
434;SDS011;204;48.942;9.256;2022-07-12T02:16:29;3.93;;;3.47;;
434;SDS011;204;48.942;9.256;2022-07-12T02:18:56;2.90;;;2.37;;
434;SDS011;204;48.942;9.256;2022-07-12T02:21:21;4.47;;;3.07;;
434;SDS011;204;48.942;9.256;2022-07-12T02:23:47;2.90;;;2.70;;
434;SDS011;204;48.942;9.256;2022-07-12T02:26:12;3.70;;;2.90;;
434;SDS011;204;48.942;9.256;2022-07-12T02:28:38;4.07;;;2.33;;
434;SDS011;204;48.942;9.256;2022-07-12T02:31:04;3.07;;;2.87;;
434;SDS011;204;48.942;9.256;2022-07-12T02:33:30;3.17;;;2.97;;
434;SDS011;204;48.942;9.256;2022-07-12T02:35:56;3.73;;;3.20;;
434;SDS011;204;48.942;9.256;2022-07-12T02:38:21;3.50;;;3.30;;
434;SDS011;204;48.942;9.256;2022-07-12T02:40:47;3.23;;;3.03;;
434;SDS011;204;48.942;9.256;2022-07-12T02:43:25;3.88;;;3.03;;
434;SDS011;204;48.942;9.256;2022-07-12T02:45:52;2.88;;;2.67;;
434;SDS011;204;48.942;9.256;2022-07-12T02:48:21;3.20;;;3.00;;
434;SDS011;204;48.942;9.256;2022-07-12T02:50:47;4.43;;;2.72;;
434;SDS011;204;48.942;9.256;2022-07-12T02:53:13;2.60;;;2.40;;
434;SDS011;204;48.942;9.256;2022-07-12T02:55:39;3.20;;;2.97;;
434;SDS011;204;48.942;9.256;2022-07-12T02:58:05;4.07;;;3.03;;
434;SDS011;204;48.942;9.256;2022-07-12T03:00:31;3.20;;;3.00;;
434;SDS011;204;48.942;9.256;2022-07-12T03:02:58;3.28;;;3.08;;
434;SDS011;204;48.942;9.256;2022-07-12T03:05:23;4.07;;;3.87;;
434;SDS011;204;48.942;9.256;2022-07-12T03:07:49;3.03;;;2.70;;
434;SDS011;204;48.942;9.256;2022-07-12T03:10:15;6.30;;;3.30;;
434;SDS011;204;48.942;9.256;2022-07-12T03:12:41;4.30;;;3.97;;
434;SDS011;204;48.942;9.256;2022-07-12T03:15:07;3.00;;;2.80;;
434;SDS011;204;48.942;9.256;2022-07-12T03:17:33;4.78;;;3.60;;
434;SDS011;204;48.942;9.256;2022-07-12T03:19:59;3.15;;;2.75;;
434;SDS011;204;48.942;9.256;2022-07-12T03:22:25;3.97;;;3.80;;
434;SDS011;204;48.942;9.256;2022-07-12T03:24:51;3.33;;;3.13;;
434;SDS011;204;48.942;9.256;2022-07-12T03:27:17;3.43;;;3.27;;
434;SDS011;204;48.942;9.256;2022-07-12T03:29:43;3.58;;;3.38;;
434;SDS011;204;48.942;9.256;2022-07-12T03:32:08;3.53;;;2.97;;
434;SDS011;204;48.942;9.256;2022-07-12T03:34:35;3.63;;;3.43;;
434;SDS011;204;48.942;9.256;2022-07-12T03:37:00;3.60;;;3.40;;
434;SDS011;204;48.942;9.256;2022-07-12T03:39:26;2.80;;;2.60;;
434;SDS011;204;48.942;9.256;2022-07-12T03:41:52;3.40;;;3.20;;
434;SDS011;204;48.942;9.256;2022-07-12T03:44:17;3.87;;;3.67;;
434;SDS011;204;48.942;9.256;2022-07-12T03:46:43;3.83;;;3.67;;
434;SDS011;204;48.942;9.256;2022-07-12T03:49:09;3.67;;;3.47;;
434;SDS011;204;48.942;9.256;2022-07-12T03:51:34;3.20;;;3.00;;
434;SDS011;204;48.942;9.256;2022-07-12T03:54:00;3.60;;;3.40;;
434;SDS011;204;48.942;9.256;2022-07-12T03:56:25;3.37;;;3.17;;
434;SDS011;204;48.942;9.256;2022-07-12T03:59:10;4.25;;;3.97;;
434;SDS011;204;48.942;9.256;2022-07-12T04:01:35;3.33;;;3.20;;
434;SDS011;204;48.942;9.256;2022-07-12T04:04:01;3.23;;;3.03;;
434;SDS011;204;48.942;9.256;2022-07-12T04:06:27;6.65;;;3.83;;
434;SDS011;204;48.942;9.256;2022-07-12T04:08:53;4.20;;;3.10;;
434;SDS011;204;48.942;9.256;2022-07-12T04:11:19;3.23;;;3.03;;
434;SDS011;204;48.942;9.256;2022-07-12T04:13:44;3.77;;;3.57;;
434;SDS011;204;48.942;9.256;2022-07-12T04:16:10;3.83;;;3.67;;
434;SDS011;204;48.942;9.256;2022-07-12T04:18:37;4.05;;;3.85;;
434;SDS011;204;48.942;9.256;2022-07-12T04:21:03;4.23;;;3.63;;
434;SDS011;204;48.942;9.256;2022-07-12T04:23:28;3.87;;;3.53;;
434;SDS011;204;48.942;9.256;2022-07-12T04:25:54;6.33;;;3.40;;
434;SDS011;204;48.942;9.256;2022-07-12T04:28:20;3.60;;;3.40;;
434;SDS011;204;48.942;9.256;2022-07-12T04:30:45;4.27;;;4.00;;
434;SDS011;204;48.942;9.256;2022-07-12T04:33:11;4.30;;;3.67;;
434;SDS011;204;48.942;9.256;2022-07-12T04:35:37;4.15;;;3.70;;
434;SDS011;204;48.942;9.256;2022-07-12T04:38:04;4.07;;;3.87;;
434;SDS011;204;48.942;9.256;2022-07-12T04:40:30;5.30;;;3.40;;
434;SDS011;204;48.942;9.256;2022-07-12T04:42:56;3.30;;;3.10;;
434;SDS011;204;48.942;9.256;2022-07-12T04:45:21;3.80;;;2.90;;
434;SDS011;204;48.942;9.256;2022-07-12T04:47:47;2.70;;;2.50;;
434;SDS011;204;48.942;9.256;2022-07-12T04:50:13;3.73;;;3.20;;
434;SDS011;204;48.942;9.256;2022-07-12T04:52:38;3.30;;;3.10;;
434;SDS011;204;48.942;9.256;2022-07-12T04:55:05;3.60;;;3.40;;
434;SDS011;204;48.942;9.256;2022-07-12T04:57:31;2.80;;;2.60;;
434;SDS011;204;48.942;9.256;2022-07-12T04:59:57;2.90;;;2.70;;
434;SDS011;204;48.942;9.256;2022-07-12T05:02:23;3.10;;;2.90;;
434;SDS011;204;48.942;9.256;2022-07-12T05:04:48;4.33;;;3.00;;
434;SDS011;204;48.942;9.256;2022-07-12T05:07:14;3.93;;;3.30;;
434;SDS011;204;48.942;9.256;2022-07-12T05:09:40;8.50;;;3.30;;
434;SDS011;204;48.942;9.256;2022-07-12T05:12:05;40.03;;;7.10;;
434;SDS011;204;48.942;9.256;2022-07-12T05:14:31;43.83;;;8.30;;
434;SDS011;204;48.942;9.256;2022-07-12T05:16:57;5.90;;;3.50;;
434;SDS011;204;48.942;9.256;2022-07-12T05:19:23;3.37;;;3.20;;
434;SDS011;204;48.942;9.256;2022-07-12T05:21:48;2.63;;;2.43;;
434;SDS011;204;48.942;9.256;2022-07-12T05:24:15;2.97;;;2.57;;
434;SDS011;204;48.942;9.256;2022-07-12T05:26:40;3.33;;;2.40;;
434;SDS011;204;48.942;9.256;2022-07-12T05:29:06;4.90;;;2.90;;
434;SDS011;204;48.942;9.256;2022-07-12T05:31:32;4.10;;;3.00;;
434;SDS011;204;48.942;9.256;2022-07-12T05:33:58;4.00;;;3.23;;
434;SDS011;204;48.942;9.256;2022-07-12T05:36:24;3.43;;;2.87;;
434;SDS011;204;48.942;9.256;2022-07-12T05:38:49;4.30;;;3.03;;
434;SDS011;204;48.942;9.256;2022-07-12T05:41:15;2.97;;;2.77;;
434;SDS011;204;48.942;9.256;2022-07-12T05:43:41;4.70;;;3.30;;
434;SDS011;204;48.942;9.256;2022-07-12T05:46:06;3.00;;;2.80;;
434;SDS011;204;48.942;9.256;2022-07-12T05:48:33;3.00;;;2.80;;
434;SDS011;204;48.942;9.256;2022-07-12T05:50:59;3.70;;;3.50;;
434;SDS011;204;48.942;9.256;2022-07-12T05:53:44;2.33;;;2.13;;
434;SDS011;204;48.942;9.256;2022-07-12T05:56:10;3.53;;;3.33;;
434;SDS011;204;48.942;9.256;2022-07-12T05:58:35;3.03;;;2.83;;
434;SDS011;204;48.942;9.256;2022-07-12T06:01:01;3.00;;;2.80;;
434;SDS011;204;48.942;9.256;2022-07-12T06:03:26;3.83;;;2.97;;
434;SDS011;204;48.942;9.256;2022-07-12T06:05:52;3.97;;;3.30;;
434;SDS011;204;48.942;9.256;2022-07-12T06:08:18;2.97;;;2.77;;
434;SDS011;204;48.942;9.256;2022-07-12T06:10:44;3.73;;;2.83;;
434;SDS011;204;48.942;9.256;2022-07-12T06:13:10;3.70;;;3.40;;
434;SDS011;204;48.942;9.256;2022-07-12T06:15:36;3.03;;;2.87;;
434;SDS011;204;48.942;9.256;2022-07-12T06:18:02;3.87;;;3.70;;
434;SDS011;204;48.942;9.256;2022-07-12T06:20:28;5.10;;;2.70;;
434;SDS011;204;48.942;9.256;2022-07-12T06:22:54;2.73;;;2.50;;
434;SDS011;204;48.942;9.256;2022-07-12T06:25:20;3.10;;;2.90;;
434;SDS011;204;48.942;9.256;2022-07-12T06:27:46;6.47;;;4.97;;
434;SDS011;204;48.942;9.256;2022-07-12T06:30:14;3.60;;;3.40;;
434;SDS011;204;48.942;9.256;2022-07-12T06:32:44;2.77;;;2.43;;
434;SDS011;204;48.942;9.256;2022-07-12T06:35:11;4.10;;;2.70;;
434;SDS011;204;48.942;9.256;2022-07-12T06:37:36;5.23;;;3.43;;
434;SDS011;204;48.942;9.256;2022-07-12T06:40:02;2.93;;;2.73;;
434;SDS011;204;48.942;9.256;2022-07-12T06:42:28;2.80;;;2.30;;
434;SDS011;204;48.942;9.256;2022-07-12T06:44:54;2.97;;;2.77;;
434;SDS011;204;48.942;9.256;2022-07-12T06:47:20;3.00;;;2.33;;
434;SDS011;204;48.942;9.256;2022-07-12T06:49:46;2.33;;;2.13;;
434;SDS011;204;48.942;9.256;2022-07-12T06:52:11;2.33;;;2.13;;
434;SDS011;204;48.942;9.256;2022-07-12T06:54:37;2.47;;;2.27;;
434;SDS011;204;48.942;9.256;2022-07-12T06:57:02;2.33;;;1.80;;
434;SDS011;204;48.942;9.256;2022-07-12T06:59:28;9.40;;;1.90;;
434;SDS011;204;48.942;9.256;2022-07-12T07:01:54;2.63;;;2.03;;
434;SDS011;204;48.942;9.256;2022-07-12T07:04:22;2.83;;;1.97;;
434;SDS011;204;48.942;9.256;2022-07-12T07:06:48;2.73;;;1.93;;
434;SDS011;204;48.942;9.256;2022-07-12T07:09:14;3.40;;;1.93;;
434;SDS011;204;48.942;9.256;2022-07-12T07:11:40;1.77;;;1.37;;
434;SDS011;204;48.942;9.256;2022-07-12T07:14:06;4.43;;;1.90;;
434;SDS011;204;48.942;9.256;2022-07-12T07:16:32;1.30;;;1.20;;
434;SDS011;204;48.942;9.256;2022-07-12T07:18:57;4.77;;;1.47;;
434;SDS011;204;48.942;9.256;2022-07-12T07:21:23;1.47;;;1.07;;
434;SDS011;204;48.942;9.256;2022-07-12T07:23:49;4.20;;;1.30;;
434;SDS011;204;48.942;9.256;2022-07-12T07:26:16;1.33;;;0.90;;
434;SDS011;204;48.942;9.256;2022-07-12T07:28:41;1.27;;;1.10;;
434;SDS011;204;48.942;9.256;2022-07-12T07:31:26;3.70;;;1.00;;
434;SDS011;204;48.942;9.256;2022-07-12T07:33:51;1.33;;;0.50;;
434;SDS011;204;48.942;9.256;2022-07-12T07:36:17;0.80;;;0.70;;
434;SDS011;204;48.942;9.256;2022-07-12T07:38:42;3.53;;;0.80;;
434;SDS011;204;48.942;9.256;2022-07-12T07:41:08;3.40;;;0.80;;
434;SDS011;204;48.942;9.256;2022-07-12T07:43:33;3.80;;;0.80;;
434;SDS011;204;48.942;9.256;2022-07-12T07:45:59;0.60;;;0.50;;
434;SDS011;204;48.942;9.256;2022-07-12T07:48:26;1.03;;;0.73;;
434;SDS011;204;48.942;9.256;2022-07-12T07:50:52;0.50;;;0.47;;
434;SDS011;204;48.942;9.256;2022-07-12T07:53:18;1.27;;;0.50;;
434;SDS011;204;48.942;9.256;2022-07-12T07:55:43;0.87;;;0.60;;
434;SDS011;204;48.942;9.256;2022-07-12T07:58:09;1.10;;;0.67;;
434;SDS011;204;48.942;9.256;2022-07-12T08:00:34;0.70;;;0.50;;
434;SDS011;204;48.942;9.256;2022-07-12T08:03:00;1.17;;;0.70;;
434;SDS011;204;48.942;9.256;2022-07-12T08:05:26;0.60;;;0.60;;
434;SDS011;204;48.942;9.256;2022-07-12T08:07:51;0.60;;;0.60;;
434;SDS011;204;48.942;9.256;2022-07-12T08:10:17;0.40;;;0.30;;
434;SDS011;204;48.942;9.256;2022-07-12T08:12:42;0.50;;;0.30;;
434;SDS011;204;48.942;9.256;2022-07-12T08:15:08;0.47;;;0.40;;
434;SDS011;204;48.942;9.256;2022-07-12T08:17:34;0.40;;;0.37;;
434;SDS011;204;48.942;9.256;2022-07-12T08:20:02;1.23;;;0.40;;
434;SDS011;204;48.942;9.256;2022-07-12T08:22:29;0.50;;;0.50;;
434;SDS011;204;48.942;9.256;2022-07-12T08:24:54;0.60;;;0.47;;
434;SDS011;204;48.942;9.256;2022-07-12T08:27:20;0.50;;;0.40;;
434;SDS011;204;48.942;9.256;2022-07-12T08:29:45;0.60;;;0.40;;
434;SDS011;204;48.942;9.256;2022-07-12T08:32:11;1.50;;;0.40;;
434;SDS011;204;48.942;9.256;2022-07-12T08:34:37;1.13;;;0.60;;
434;SDS011;204;48.942;9.256;2022-07-12T08:37:02;0.93;;;0.50;;
434;SDS011;204;48.942;9.256;2022-07-12T08:39:28;0.80;;;0.43;;
434;SDS011;204;48.942;9.256;2022-07-12T08:41:54;0.53;;;0.53;;
434;SDS011;204;48.942;9.256;2022-07-12T08:44:19;0.47;;;0.40;;
434;SDS011;204;48.942;9.256;2022-07-12T08:46:45;0.50;;;0.40;;
434;SDS011;204;48.942;9.256;2022-07-12T08:49:12;0.80;;;0.70;;
434;SDS011;204;48.942;9.256;2022-07-12T08:51:37;0.50;;;0.40;;
434;SDS011;204;48.942;9.256;2022-07-12T08:54:07;1.03;;;0.40;;
434;SDS011;204;48.942;9.256;2022-07-12T08:56:36;0.63;;;0.63;;
434;SDS011;204;48.942;9.256;2022-07-12T08:59:08;0.80;;;0.70;;
434;SDS011;204;48.942;9.256;2022-07-12T09:04:13;0.70;;;0.50;;
434;SDS011;204;48.942;9.256;2022-07-12T09:06:40;0.47;;;0.43;;
434;SDS011;204;48.942;9.256;2022-07-12T09:09:06;0.40;;;0.40;;
434;SDS011;204;48.942;9.256;2022-07-12T09:11:34;0.90;;;0.50;;
434;SDS011;204;48.942;9.256;2022-07-12T09:14:01;1.53;;;0.50;;
434;SDS011;204;48.942;9.256;2022-07-12T09:16:27;0.40;;;0.40;;
434;SDS011;204;48.942;9.256;2022-07-12T09:24:15;2.77;;;0.57;;
434;SDS011;204;48.942;9.256;2022-07-12T09:26:41;0.40;;;0.30;;
434;SDS011;204;48.942;9.256;2022-07-12T09:29:09;0.40;;;0.40;;
434;SDS011;204;48.942;9.256;2022-07-12T09:34:05;0.43;;;0.43;;
434;SDS011;204;48.942;9.256;2022-07-12T09:36:56;0.40;;;0.37;;
434;SDS011;204;48.942;9.256;2022-07-12T09:39:23;2.97;;;0.50;;
434;SDS011;204;48.942;9.256;2022-07-12T09:41:50;0.40;;;0.30;;
434;SDS011;204;48.942;9.256;2022-07-12T09:44:18;2.57;;;0.87;;
434;SDS011;204;48.942;9.256;2022-07-12T09:46:45;0.80;;;0.50;;
434;SDS011;204;48.942;9.256;2022-07-12T09:49:12;0.40;;;0.30;;
434;SDS011;204;48.942;9.256;2022-07-12T09:51:38;1.13;;;0.40;;
434;SDS011;204;48.942;9.256;2022-07-12T09:54:08;0.60;;;0.50;;
434;SDS011;204;48.942;9.256;2022-07-12T09:56:35;0.60;;;0.40;;
434;SDS011;204;48.942;9.256;2022-07-12T09:59:05;0.40;;;0.40;;
434;SDS011;204;48.942;9.256;2022-07-12T10:01:36;0.53;;;0.53;;
434;SDS011;204;48.942;9.256;2022-07-12T10:04:02;0.77;;;0.50;;
434;SDS011;204;48.942;9.256;2022-07-12T10:06:29;0.50;;;0.50;;
434;SDS011;204;48.942;9.256;2022-07-12T10:08:55;0.40;;;0.40;;
434;SDS011;204;48.942;9.256;2022-07-12T10:11:24;0.60;;;0.50;;
434;SDS011;204;48.942;9.256;2022-07-12T10:13:51;0.40;;;0.40;;
434;SDS011;204;48.942;9.256;2022-07-12T10:16:24;0.77;;;0.73;;
434;SDS011;204;48.942;9.256;2022-07-12T10:21:52;0.60;;;0.47;;
434;SDS011;204;48.942;9.256;2022-07-12T10:27:26;0.80;;;0.70;;
434;SDS011;204;48.942;9.256;2022-07-12T10:29:49;1.27;;;0.30;;
434;SDS011;204;48.942;9.256;2022-07-12T10:37:28;0.60;;;0.50;;
434;SDS011;204;48.942;9.256;2022-07-12T10:45:36;0.50;;;0.40;;
434;SDS011;204;48.942;9.256;2022-07-12T11:01:05;2.17;;;2.00;;
434;SDS011;204;48.942;9.256;2022-07-12T11:03:43;0.50;;;0.50;;
434;SDS011;204;48.942;9.256;2022-07-12T11:06:21;0.67;;;0.50;;
434;SDS011;204;48.942;9.256;2022-07-12T11:11:18;1.87;;;0.60;;
434;SDS011;204;48.942;9.256;2022-07-12T11:13:45;0.70;;;0.63;;
434;SDS011;204;48.942;9.256;2022-07-12T11:16:10;0.60;;;0.60;;
434;SDS011;204;48.942;9.256;2022-07-12T11:18:37;1.10;;;0.50;;
434;SDS011;204;48.942;9.256;2022-07-12T11:21:03;0.43;;;0.40;;
434;SDS011;204;48.942;9.256;2022-07-12T11:23:29;0.50;;;0.40;;
434;SDS011;204;48.942;9.256;2022-07-12T11:25:56;0.43;;;0.43;;
434;SDS011;204;48.942;9.256;2022-07-12T11:28:23;1.37;;;0.60;;
434;SDS011;204;48.942;9.256;2022-07-12T11:30:52;0.80;;;0.30;;
434;SDS011;204;48.942;9.256;2022-07-12T11:33:21;2.10;;;0.70;;
434;SDS011;204;48.942;9.256;2022-07-12T11:35:50;0.60;;;0.60;;
434;SDS011;204;48.942;9.256;2022-07-12T11:38:23;0.63;;;0.47;;
434;SDS011;204;48.942;9.256;2022-07-12T11:40:55;1.00;;;0.40;;
434;SDS011;204;48.942;9.256;2022-07-12T11:43:22;0.60;;;0.57;;
434;SDS011;204;48.942;9.256;2022-07-12T11:45:48;5.10;;;0.60;;
434;SDS011;204;48.942;9.256;2022-07-12T11:48:15;0.80;;;0.50;;
434;SDS011;204;48.942;9.256;2022-07-12T11:50:44;0.93;;;0.60;;
434;SDS011;204;48.942;9.256;2022-07-12T11:53:17;0.97;;;0.60;;
434;SDS011;204;48.942;9.256;2022-07-12T11:55:48;0.47;;;0.40;;
434;SDS011;204;48.942;9.256;2022-07-12T11:58:15;1.13;;;0.77;;
434;SDS011;204;48.942;9.256;2022-07-12T12:00:42;0.50;;;0.40;;
434;SDS011;204;48.942;9.256;2022-07-12T12:03:08;0.60;;;0.50;;
434;SDS011;204;48.942;9.256;2022-07-12T12:05:36;0.57;;;0.40;;
434;SDS011;204;48.942;9.256;2022-07-12T12:08:02;2.30;;;0.50;;
434;SDS011;204;48.942;9.256;2022-07-12T12:10:29;0.50;;;0.43;;
434;SDS011;204;48.942;9.256;2022-07-12T12:12:56;0.93;;;0.70;;
434;SDS011;204;48.942;9.256;2022-07-12T12:15:24;0.60;;;0.40;;
434;SDS011;204;48.942;9.256;2022-07-12T12:17:55;1.83;;;0.40;;
434;SDS011;204;48.942;9.256;2022-07-12T12:22:51;0.57;;;0.50;;
434;SDS011;204;48.942;9.256;2022-07-12T12:25:18;0.63;;;0.50;;
434;SDS011;204;48.942;9.256;2022-07-12T12:27:49;0.50;;;0.40;;
434;SDS011;204;48.942;9.256;2022-07-12T12:30:19;1.47;;;0.40;;
434;SDS011;204;48.942;9.256;2022-07-12T12:35:21;0.67;;;0.60;;
434;SDS011;204;48.942;9.256;2022-07-12T12:37:57;0.80;;;0.63;;
434;SDS011;204;48.942;9.256;2022-07-12T12:40:25;1.10;;;0.40;;
434;SDS011;204;48.942;9.256;2022-07-12T12:43:06;0.53;;;0.50;;
434;SDS011;204;48.942;9.256;2022-07-12T12:45:33;0.50;;;0.50;;
434;SDS011;204;48.942;9.256;2022-07-12T12:48:03;0.60;;;0.60;;
434;SDS011;204;48.942;9.256;2022-07-12T12:50:39;2.67;;;0.50;;
434;SDS011;204;48.942;9.256;2022-07-12T12:55:37;0.50;;;0.40;;
434;SDS011;204;48.942;9.256;2022-07-12T12:58:03;1.43;;;0.90;;
434;SDS011;204;48.942;9.256;2022-07-12T13:00:29;0.60;;;0.40;;
434;SDS011;204;48.942;9.256;2022-07-12T13:02:56;0.60;;;0.50;;
434;SDS011;204;48.942;9.256;2022-07-12T13:05:24;0.40;;;0.40;;
434;SDS011;204;48.942;9.256;2022-07-12T13:07:51;0.53;;;0.40;;
434;SDS011;204;48.942;9.256;2022-07-12T13:10:17;0.70;;;0.57;;
434;SDS011;204;48.942;9.256;2022-07-12T13:12:42;0.50;;;0.50;;
434;SDS011;204;48.942;9.256;2022-07-12T13:15:09;0.80;;;0.30;;
434;SDS011;204;48.942;9.256;2022-07-12T13:17:35;0.60;;;0.60;;
434;SDS011;204;48.942;9.256;2022-07-12T13:20:01;0.47;;;0.47;;
434;SDS011;204;48.942;9.256;2022-07-12T13:22:28;0.50;;;0.50;;
434;SDS011;204;48.942;9.256;2022-07-12T13:24:54;0.87;;;0.80;;
434;SDS011;204;48.942;9.256;2022-07-12T13:27:20;0.60;;;0.60;;
434;SDS011;204;48.942;9.256;2022-07-12T13:29:46;1.43;;;0.70;;
434;SDS011;204;48.942;9.256;2022-07-12T13:32:11;0.77;;;0.50;;
434;SDS011;204;48.942;9.256;2022-07-12T13:34:37;0.60;;;0.57;;
434;SDS011;204;48.942;9.256;2022-07-12T13:37:03;1.07;;;0.60;;
434;SDS011;204;48.942;9.256;2022-07-12T13:39:30;4.00;;;0.60;;
434;SDS011;204;48.942;9.256;2022-07-12T13:42:14;0.60;;;0.40;;
434;SDS011;204;48.942;9.256;2022-07-12T13:44:41;1.77;;;0.60;;
434;SDS011;204;48.942;9.256;2022-07-12T13:47:07;2.80;;;0.60;;
434;SDS011;204;48.942;9.256;2022-07-12T13:49:33;0.80;;;0.70;;
434;SDS011;204;48.942;9.256;2022-07-12T13:51:59;1.33;;;0.43;;
434;SDS011;204;48.942;9.256;2022-07-12T13:54:26;1.33;;;0.60;;
434;SDS011;204;48.942;9.256;2022-07-12T13:56:52;0.60;;;0.57;;
434;SDS011;204;48.942;9.256;2022-07-12T13:59:18;0.80;;;0.50;;
434;SDS011;204;48.942;9.256;2022-07-12T14:01:44;0.60;;;0.60;;
434;SDS011;204;48.942;9.256;2022-07-12T14:04:10;0.87;;;0.40;;
434;SDS011;204;48.942;9.256;2022-07-12T14:06:35;0.60;;;0.50;;
434;SDS011;204;48.942;9.256;2022-07-12T14:09:01;4.30;;;0.50;;
434;SDS011;204;48.942;9.256;2022-07-12T14:11:27;1.67;;;0.60;;
434;SDS011;204;48.942;9.256;2022-07-12T14:13:52;0.87;;;0.50;;
434;SDS011;204;48.942;9.256;2022-07-12T14:16:18;0.90;;;0.50;;
434;SDS011;204;48.942;9.256;2022-07-12T14:18:44;0.50;;;0.50;;
434;SDS011;204;48.942;9.256;2022-07-12T14:21:09;0.67;;;0.60;;
434;SDS011;204;48.942;9.256;2022-07-12T14:23:38;0.87;;;0.40;;
434;SDS011;204;48.942;9.256;2022-07-12T14:26:04;1.03;;;0.87;;
434;SDS011;204;48.942;9.256;2022-07-12T14:28:30;0.70;;;0.60;;
434;SDS011;204;48.942;9.256;2022-07-12T14:30:56;0.53;;;0.53;;
434;SDS011;204;48.942;9.256;2022-07-12T14:33:22;0.60;;;0.50;;
434;SDS011;204;48.942;9.256;2022-07-12T14:35:47;0.60;;;0.60;;
434;SDS011;204;48.942;9.256;2022-07-12T14:38:13;1.10;;;0.60;;
434;SDS011;204;48.942;9.256;2022-07-12T14:40:39;1.00;;;0.57;;
434;SDS011;204;48.942;9.256;2022-07-12T14:43:04;1.03;;;0.40;;
434;SDS011;204;48.942;9.256;2022-07-12T14:45:30;1.67;;;0.80;;
434;SDS011;204;48.942;9.256;2022-07-12T14:47:55;0.70;;;0.63;;
434;SDS011;204;48.942;9.256;2022-07-12T14:50:21;0.50;;;0.50;;
434;SDS011;204;48.942;9.256;2022-07-12T14:52:46;1.57;;;0.60;;
434;SDS011;204;48.942;9.256;2022-07-12T14:55:12;0.60;;;0.50;;
434;SDS011;204;48.942;9.256;2022-07-12T14:57:38;0.97;;;0.87;;
434;SDS011;204;48.942;9.256;2022-07-12T15:00:05;0.60;;;0.40;;
434;SDS011;204;48.942;9.256;2022-07-12T15:02:32;1.20;;;0.60;;
434;SDS011;204;48.942;9.256;2022-07-12T15:04:59;1.20;;;0.60;;
434;SDS011;204;48.942;9.256;2022-07-12T15:07:28;0.70;;;0.70;;
434;SDS011;204;48.942;9.256;2022-07-12T15:09:55;0.50;;;0.50;;
434;SDS011;204;48.942;9.256;2022-07-12T15:12:20;0.73;;;0.63;;
434;SDS011;204;48.942;9.256;2022-07-12T15:14:46;0.80;;;0.50;;
434;SDS011;204;48.942;9.256;2022-07-12T15:17:12;1.57;;;0.50;;
434;SDS011;204;48.942;9.256;2022-07-12T15:19:40;1.33;;;0.57;;
434;SDS011;204;48.942;9.256;2022-07-12T15:22:06;0.40;;;0.40;;
434;SDS011;204;48.942;9.256;2022-07-12T15:24:32;0.50;;;0.50;;
434;SDS011;204;48.942;9.256;2022-07-12T15:26:58;1.60;;;0.67;;
434;SDS011;204;48.942;9.256;2022-07-12T15:29:24;0.47;;;0.43;;
434;SDS011;204;48.942;9.256;2022-07-12T15:31:49;0.77;;;0.67;;
434;SDS011;204;48.942;9.256;2022-07-12T15:34:16;0.50;;;0.43;;
434;SDS011;204;48.942;9.256;2022-07-12T15:36:42;0.63;;;0.60;;
434;SDS011;204;48.942;9.256;2022-07-12T15:39:08;0.70;;;0.67;;
434;SDS011;204;48.942;9.256;2022-07-12T15:41:34;0.70;;;0.60;;
434;SDS011;204;48.942;9.256;2022-07-12T15:44:03;0.70;;;0.60;;
434;SDS011;204;48.942;9.256;2022-07-12T15:46:29;1.13;;;0.73;;
434;SDS011;204;48.942;9.256;2022-07-12T15:48:54;0.90;;;0.83;;
434;SDS011;204;48.942;9.256;2022-07-12T15:51:20;0.70;;;0.60;;
434;SDS011;204;48.942;9.256;2022-07-12T15:54:06;0.80;;;0.57;;
434;SDS011;204;48.942;9.256;2022-07-12T15:56:31;1.37;;;0.50;;
434;SDS011;204;48.942;9.256;2022-07-12T15:58:57;1.53;;;0.53;;
434;SDS011;204;48.942;9.256;2022-07-12T16:01:23;1.30;;;0.77;;
434;SDS011;204;48.942;9.256;2022-07-12T16:03:48;0.60;;;0.50;;
434;SDS011;204;48.942;9.256;2022-07-12T16:06:14;2.87;;;0.50;;
434;SDS011;204;48.942;9.256;2022-07-12T16:08:40;0.77;;;0.63;;
434;SDS011;204;48.942;9.256;2022-07-12T16:11:08;0.93;;;0.83;;
434;SDS011;204;48.942;9.256;2022-07-12T16:13:34;0.80;;;0.70;;
434;SDS011;204;48.942;9.256;2022-07-12T16:16:02;1.10;;;1.00;;
434;SDS011;204;48.942;9.256;2022-07-12T16:18:28;0.80;;;0.70;;
434;SDS011;204;48.942;9.256;2022-07-12T16:20:55;1.27;;;0.60;;
434;SDS011;204;48.942;9.256;2022-07-12T16:23:21;0.60;;;0.60;;
434;SDS011;204;48.942;9.256;2022-07-12T16:25:47;0.70;;;0.60;;
434;SDS011;204;48.942;9.256;2022-07-12T16:28:13;2.40;;;0.67;;
434;SDS011;204;48.942;9.256;2022-07-12T16:30:38;0.70;;;0.60;;
434;SDS011;204;48.942;9.256;2022-07-12T16:33:04;1.50;;;0.57;;